createdAt,value
2022-10-17T00:00:27.052Z,15.60
2022-10-17T00:04:29.833Z,15.60
2022-10-17T00:08:33.964Z,15.50
2022-10-17T00:12:36.682Z,15.50
2022-10-17T00:16:39.368Z,15.50
2022-10-17T00:20:42.081Z,15.40
2022-10-17T00:24:46.175Z,15.40
2022-10-17T00:28:49.515Z,15.30
2022-10-17T00:32:52.434Z,15.20
2022-10-17T00:36:55.140Z,15.20
2022-10-17T00:40:59.498Z,15.20
2022-10-17T00:45:08.544Z,15.20
2022-10-17T00:49:13.058Z,15.00
2022-10-17T00:53:16.443Z,15.00
2022-10-17T00:57:20.845Z,15.00
2022-10-17T01:01:23.641Z,15.00
2022-10-17T01:05:26.597Z,15.00
2022-10-17T01:09:29.380Z,14.90
2022-10-17T01:13:38.503Z,14.80
2022-10-17T01:17:53.762Z,14.80
2022-10-17T01:22:01.902Z,14.70
2022-10-17T01:26:15.027Z,14.70
2022-10-17T01:30:55.528Z,14.70
2022-10-17T01:35:03.951Z,14.60
2022-10-17T01:39:15.538Z,14.60
2022-10-17T01:43:23.959Z,14.70
2022-10-17T01:47:30.995Z,14.60
2022-10-17T01:51:43.016Z,14.60
2022-10-17T01:55:47.337Z,14.50
2022-10-17T01:59:53.755Z,14.50
2022-10-17T02:03:59.161Z,14.40
2022-10-17T02:08:05.326Z,14.30
2022-10-17T02:12:26.119Z,14.10
2022-10-17T02:16:37.040Z,14.00
2022-10-17T02:20:49.226Z,13.80
2022-10-17T02:24:59.962Z,13.80
2022-10-17T02:29:10.200Z,13.70
2022-10-17T02:33:18.137Z,13.70
2022-10-17T02:37:25.525Z,13.60
2022-10-17T02:41:32.707Z,13.50
2022-10-17T02:45:36.203Z,13.40
2022-10-17T02:49:45.825Z,13.40
2022-10-17T02:53:56.813Z,13.40
2022-10-17T02:58:05.368Z,13.40
2022-10-17T03:02:08.351Z,13.50
2022-10-17T03:06:11.511Z,13.40
2022-10-17T03:10:15.175Z,13.40
2022-10-17T03:14:19.350Z,13.50
2022-10-17T03:18:22.961Z,13.40
2022-10-17T03:22:29.119Z,13.40
2022-10-17T03:26:33.278Z,13.40
2022-10-17T03:30:39.696Z,13.40
2022-10-17T03:34:42.941Z,13.40
2022-10-17T03:38:47.297Z,13.40
2022-10-17T03:42:52.195Z,13.40
2022-10-17T03:46:56.290Z,13.30
2022-10-17T03:51:01.355Z,13.30
2022-10-17T03:55:05.438Z,13.20
2022-10-17T03:59:08.363Z,13.20
2022-10-17T04:03:17.229Z,13.20
2022-10-17T04:07:20.378Z,13.10
2022-10-17T04:11:24.562Z,12.90
2022-10-17T04:15:29.367Z,12.90
2022-10-17T04:19:33.603Z,12.80
2022-10-17T04:23:36.924Z,12.70
2022-10-17T04:27:49.970Z,12.60
2022-10-17T04:31:53.227Z,12.70
2022-10-17T04:36:05.558Z,12.60
2022-10-17T04:40:10.245Z,12.70
2022-10-17T04:44:14.007Z,12.70
2022-10-17T04:48:22.412Z,12.60
2022-10-17T04:52:27.094Z,12.60
2022-10-17T04:56:30.259Z,12.50
2022-10-17T05:00:34.133Z,12.40
2022-10-17T05:04:42.322Z,12.30
2022-10-17T05:08:48.923Z,12.20
2022-10-17T05:12:54.469Z,12.20
2022-10-17T05:16:59.849Z,12.30
2022-10-17T05:21:04.802Z,12.20
2022-10-17T05:25:10.819Z,12.20
2022-10-17T05:29:13.534Z,12.20
2022-10-17T05:33:21.231Z,12.00
2022-10-17T05:37:24.147Z,12.00
2022-10-17T05:41:32.279Z,12.10
2022-10-17T05:45:35.061Z,12.20
2022-10-17T05:49:46.334Z,12.20
2022-10-17T05:53:54.323Z,12.20
2022-10-17T05:58:02.903Z,12.20
2022-10-17T06:02:12.422Z,12.20
2022-10-17T06:06:16.302Z,12.30
2022-10-17T06:10:21.039Z,12.30
2022-10-17T06:14:25.781Z,12.30
2022-10-17T06:18:32.987Z,12.20
2022-10-17T06:22:36.204Z,12.20
2022-10-17T06:26:43.314Z,12.30
2022-10-17T06:30:49.971Z,12.40
2022-10-17T06:34:52.868Z,12.40
2022-10-17T06:38:55.696Z,12.40
2022-10-17T06:43:05.453Z,12.50
2022-10-17T06:47:26.216Z,12.60
2022-10-17T06:51:35.761Z,12.60
2022-10-17T06:55:39.283Z,12.60
2022-10-17T07:00:02.532Z,12.70
2022-10-17T07:04:16.955Z,12.80
2022-10-17T07:08:19.765Z,12.90
2022-10-17T07:12:23.270Z,13.00
2022-10-17T07:16:27.006Z,13.10
2022-10-17T07:20:41.723Z,13.20
2022-10-17T07:24:44.559Z,13.30
2022-10-17T07:28:55.837Z,13.40
2022-10-17T07:33:27.745Z,13.50
2022-10-17T07:37:32.538Z,13.60
2022-10-17T07:41:36.247Z,13.70
2022-10-17T07:45:42.352Z,13.70
2022-10-17T07:49:45.277Z,13.90
2022-10-17T07:53:49.452Z,13.90
2022-10-17T07:57:52.160Z,14.10
2022-10-17T08:01:56.486Z,14.20
2022-10-17T08:05:59.947Z,14.40
2022-10-17T08:10:04.554Z,14.50
2022-10-17T08:14:07.801Z,14.70
2022-10-17T08:18:10.540Z,14.80
2022-10-17T08:22:13.266Z,14.90
2022-10-17T08:26:19.903Z,15.10
2022-10-17T08:30:22.610Z,15.30
2022-10-17T08:34:25.283Z,15.50
2022-10-17T08:38:30.052Z,15.70
2022-10-17T08:42:55.622Z,16.00
2022-10-17T08:47:02.538Z,16.60
2022-10-17T08:51:11.873Z,18.30
2022-10-17T08:55:17.141Z,21.00
2022-10-17T08:59:25.994Z,23.00
2022-10-17T09:03:53.696Z,25.30
2022-10-17T09:08:06.092Z,26.60
2022-10-17T09:12:18.722Z,28.50
2022-10-17T09:16:40.578Z,30.20
2022-10-17T09:20:46.968Z,31.50
2022-10-17T09:24:55.615Z,31.80
2022-10-17T09:29:00.867Z,31.70
2022-10-17T09:33:23.160Z,32.30
2022-10-17T09:37:35.080Z,33.50
2022-10-17T09:41:45.868Z,34.50
2022-10-17T09:46:01.579Z,34.90
2022-10-17T09:50:15.529Z,35.30
2022-10-17T09:54:21.679Z,36.00
2022-10-17T09:58:25.006Z,36.30
2022-10-17T10:02:30.145Z,37.30
2022-10-17T10:06:34.576Z,37.80
2022-10-17T10:10:37.507Z,38.30
2022-10-17T10:14:40.370Z,38.50
2022-10-17T10:18:44.579Z,38.40
2022-10-17T10:23:06.520Z,39.10
2022-10-17T10:27:14.801Z,39.90
2022-10-17T10:31:17.494Z,39.30
2022-10-17T10:35:22.721Z,40.10
2022-10-17T10:39:39.783Z,40.40
2022-10-17T10:43:44.771Z,40.60
2022-10-17T10:47:52.057Z,40.90
2022-10-17T10:51:54.841Z,41.10
2022-10-17T10:56:02.254Z,41.50
2022-10-17T11:00:12.369Z,41.80
2022-10-17T11:04:24.338Z,42.00
2022-10-17T11:08:35.067Z,42.00
2022-10-17T11:16:56.103Z,42.20
2022-10-17T11:21:03.460Z,42.10
2022-10-17T11:25:15.269Z,42.50
2022-10-17T11:29:19.407Z,42.70
2022-10-17T11:33:29.474Z,42.90
2022-10-17T11:37:36.296Z,43.00
2022-10-17T11:41:44.147Z,41.80
2022-10-17T11:45:52.991Z,41.70
2022-10-17T11:51:59.740Z,42.30
2022-10-17T11:54:29.849Z,42.30
2022-10-17T11:58:39.982Z,42.50
2022-10-17T12:02:51.844Z,42.70
2022-10-17T12:07:08.656Z,41.70
2022-10-17T12:11:20.937Z,41.30
2022-10-17T12:15:31.679Z,41.70
2022-10-17T12:19:37.626Z,41.20
2022-10-17T12:23:52.994Z,41.30
2022-10-17T12:28:13.042Z,41.50
2022-10-17T12:32:16.749Z,40.80
2022-10-17T12:36:50.607Z,40.50
2022-10-17T12:40:58.542Z,39.90
2022-10-17T12:45:01.401Z,40.00
2022-10-17T12:49:21.852Z,39.80
2022-10-17T12:53:33.032Z,39.70
2022-10-17T12:57:42.110Z,39.70
2022-10-17T13:01:47.849Z,39.60
2022-10-17T13:05:53.560Z,39.50
2022-10-17T13:09:58.012Z,39.20
2022-10-17T13:14:03.196Z,38.70
2022-10-17T13:18:06.323Z,38.00
2022-10-17T13:22:15.743Z,37.40
2022-10-17T13:26:21.983Z,37.20
2022-10-17T13:30:31.117Z,37.00
2022-10-17T13:34:35.306Z,36.80
2022-10-17T13:38:41.725Z,36.60
2022-10-17T13:42:47.358Z,36.20
2022-10-17T13:46:50.620Z,35.90
2022-10-17T13:50:59.137Z,35.50
2022-10-17T13:55:11.747Z,35.20
2022-10-17T13:59:24.586Z,34.70
2022-10-17T14:03:36.520Z,34.30
2022-10-17T14:12:16.532Z,33.40
2022-10-17T14:16:21.405Z,32.90
2022-10-17T14:20:57.552Z,32.50
2022-10-17T14:24:49.356Z,32.10
2022-10-17T14:29:05.691Z,31.70
2022-10-17T14:33:14.876Z,31.40
2022-10-17T14:37:31.093Z,31.00
2022-10-17T14:41:43.042Z,30.70
2022-10-17T14:45:47.246Z,30.30
2022-10-17T14:50:02.813Z,30.00
2022-10-17T14:54:20.261Z,29.60
2022-10-17T14:58:27.623Z,29.30
2022-10-17T15:02:31.581Z,29.00
2022-10-17T15:06:36.017Z,28.60
2022-10-17T15:10:41.964Z,28.30
2022-10-17T15:14:45.094Z,27.90
2022-10-17T15:18:47.875Z,27.60
2022-10-17T15:22:51.924Z,27.40
2022-10-17T15:31:02.469Z,26.80
2022-10-17T15:35:05.615Z,26.50
2022-10-17T15:39:10.847Z,26.30
2022-10-17T15:43:18.761Z,26.10
2022-10-17T15:47:25.861Z,25.80
2022-10-17T15:51:28.547Z,25.60
2022-10-17T15:55:33.657Z,25.40
2022-10-17T15:59:36.301Z,25.20
2022-10-17T16:03:38.982Z,25.00
2022-10-17T16:07:41.671Z,24.80
2022-10-17T16:11:46.306Z,24.50
2022-10-17T16:15:49.014Z,24.30
2022-10-17T16:19:51.726Z,24.10
2022-10-17T16:23:54.551Z,23.80
2022-10-17T16:28:00.202Z,23.70
2022-10-17T16:32:02.889Z,23.50
2022-10-17T16:36:07.063Z,23.30
2022-10-17T16:40:11.055Z,23.20
2022-10-17T16:44:16.378Z,23.20
2022-10-17T16:48:19.183Z,23.00
2022-10-17T16:52:21.993Z,22.90
2022-10-17T16:56:29.579Z,22.70
2022-10-17T17:00:33.731Z,22.70
2022-10-17T17:04:36.494Z,22.40
2022-10-17T17:08:39.206Z,22.30
2022-10-17T17:12:41.937Z,22.20
2022-10-17T17:16:46.013Z,22.00
2022-10-17T17:20:49.085Z,21.90
2022-10-17T17:24:51.761Z,21.80
2022-10-17T17:28:54.610Z,21.70
2022-10-17T17:32:59.936Z,21.60
2022-10-17T17:37:02.642Z,21.50
2022-10-17T17:41:05.815Z,21.30
2022-10-17T17:45:09.616Z,21.20
2022-10-17T17:49:13.795Z,21.10
2022-10-17T17:53:18.150Z,20.90
2022-10-17T17:57:20.858Z,20.70
2022-10-17T18:01:26.205Z,20.50
2022-10-17T18:05:30.533Z,20.30
2022-10-17T18:09:33.240Z,20.20
2022-10-17T18:13:35.932Z,20.00
2022-10-17T18:17:39.155Z,19.90
2022-10-17T18:21:44.186Z,19.80
2022-10-17T18:25:54.714Z,19.90
2022-10-17T18:29:57.395Z,19.80
2022-10-17T18:34:00.970Z,19.80
2022-10-17T18:38:05.026Z,19.60
2022-10-17T18:42:07.799Z,19.60
2022-10-17T18:46:14.965Z,19.40
2022-10-17T18:50:17.910Z,19.20
2022-10-17T18:54:24.290Z,19.10
2022-10-17T18:58:27.398Z,19.00
2022-10-17T19:02:34.304Z,19.00
2022-10-17T19:06:40.679Z,18.90
2022-10-17T19:10:44.758Z,18.80
2022-10-17T19:14:47.464Z,18.80
2022-10-17T19:18:51.281Z,18.80
2022-10-17T19:27:05.071Z,18.50
2022-10-17T19:31:08.559Z,18.50
2022-10-17T19:35:12.210Z,18.40
2022-10-17T19:39:17.982Z,18.40
2022-10-17T19:43:22.785Z,18.30
2022-10-17T19:47:25.666Z,18.20
2022-10-17T19:51:29.074Z,18.10
2022-10-17T19:55:33.698Z,18.10
2022-10-17T19:59:37.742Z,18.10
2022-10-17T20:03:40.570Z,17.80
2022-10-17T20:07:43.300Z,17.70
2022-10-17T20:11:46.587Z,17.70
2022-10-17T20:15:56.819Z,17.60
2022-10-17T20:20:01.329Z,17.60
2022-10-17T20:24:08.758Z,17.60
2022-10-17T20:28:12.062Z,17.60
2022-10-17T20:32:16.123Z,17.50
2022-10-17T20:36:23.255Z,17.40
2022-10-17T20:40:41.239Z,17.30
2022-10-17T20:48:52.196Z,17.30
2022-10-17T20:53:10.925Z,17.10
2022-10-17T20:57:17.706Z,17.10
2022-10-17T21:01:20.804Z,17.10
2022-10-17T21:05:24.898Z,16.80
2022-10-17T21:09:27.612Z,16.70
2022-10-17T21:13:30.388Z,16.60
2022-10-17T21:17:33.157Z,16.50
2022-10-17T21:21:38.919Z,16.60
2022-10-17T21:25:41.597Z,16.60
2022-10-17T21:29:44.375Z,16.40
2022-10-17T21:33:48.478Z,16.50
2022-10-17T21:37:52.623Z,16.40
2022-10-17T21:41:55.825Z,16.30
2022-10-17T21:46:02.602Z,16.40
2022-10-17T21:50:05.813Z,16.40
2022-10-17T21:54:09.898Z,16.10
2022-10-17T21:58:12.624Z,16.20
2022-10-17T22:02:16.309Z,16.00
2022-10-17T22:10:46.330Z,16.00
2022-10-17T22:14:49.008Z,15.90
2022-10-17T22:18:51.691Z,15.80
2022-10-17T22:22:54.383Z,15.90
2022-10-17T22:26:58.443Z,15.90
2022-10-17T22:31:01.543Z,15.80
2022-10-17T22:35:04.639Z,15.80
2022-10-17T22:39:07.400Z,15.80
2022-10-17T22:43:11.680Z,15.90
2022-10-17T22:47:14.362Z,15.70
2022-10-17T22:51:18.627Z,15.60
2022-10-17T22:55:21.825Z,15.70
2022-10-17T22:59:25.955Z,15.70
2022-10-17T23:03:30.546Z,15.70
2022-10-17T23:07:33.406Z,15.70
2022-10-17T23:11:36.271Z,15.70
2022-10-17T23:15:40.807Z,15.70
2022-10-17T23:19:43.580Z,15.70
2022-10-17T23:23:46.623Z,15.70
2022-10-17T23:27:49.475Z,15.70
2022-10-17T23:31:56.440Z,15.70
2022-10-17T23:35:59.104Z,15.60
2022-10-17T23:40:02.183Z,15.60
2022-10-17T23:44:05.401Z,15.60
2022-10-17T23:48:09.400Z,15.50
2022-10-17T23:52:12.081Z,15.40
2022-10-17T23:56:15.098Z,15.40
